createdAt,value
2023-04-15T00:00:11.384Z,98273.63
2023-04-15T00:02:43.721Z,98276.31
2023-04-15T00:05:13.080Z,98282.59
2023-04-15T00:07:42.609Z,98283.13
2023-04-15T00:10:12.161Z,98289.41
2023-04-15T00:12:42.553Z,98277.00
2023-04-15T00:15:13.498Z,98284.28
2023-04-15T00:17:43.019Z,98286.50
2023-04-15T00:20:12.645Z,98289.00
2023-04-15T00:22:41.779Z,98289.34
2023-04-15T00:25:11.816Z,98294.78
2023-04-15T00:27:41.690Z,98290.50
2023-04-15T00:30:11.144Z,98295.63
2023-04-15T00:32:41.149Z,98302.13
2023-04-15T00:35:10.840Z,98307.56
2023-04-15T00:37:39.928Z,98309.44
2023-04-15T00:40:14.995Z,98312.72
2023-04-15T00:42:46.005Z,98317.59
2023-04-15T00:45:16.897Z,98323.00
2023-04-15T00:47:46.789Z,98325.44
2023-04-15T00:50:16.417Z,98332.47
2023-04-15T00:52:46.229Z,98331.94
2023-04-15T00:55:15.511Z,98333.84
2023-04-15T00:57:45.867Z,98340.56
2023-04-15T01:00:15.668Z,98338.66
2023-04-15T01:02:45.230Z,98344.63
2023-04-15T01:05:14.886Z,98342.41
2023-04-15T01:07:44.449Z,98342.41
2023-04-15T01:10:14.138Z,98344.03
2023-04-15T01:12:45.898Z,98351.88
2023-04-15T01:15:15.893Z,98354.00
2023-04-15T01:17:45.496Z,98352.63
2023-04-15T01:20:17.180Z,98364.47
2023-04-15T01:22:47.712Z,98365.53
2023-04-15T01:25:21.214Z,98363.34
2023-04-15T01:27:50.406Z,98374.09
2023-04-15T01:30:19.827Z,98369.75
2023-04-15T01:32:49.087Z,98377.75
2023-04-15T01:35:18.663Z,98371.22
2023-04-15T01:37:48.417Z,98379.53
2023-04-15T01:40:19.445Z,98370.03
2023-04-15T01:42:48.769Z,98374.00
2023-04-15T01:45:18.514Z,98378.25
2023-04-15T01:47:48.135Z,98375.41
2023-04-15T01:50:21.666Z,98376.69
2023-04-15T01:52:51.267Z,98379.84
2023-04-15T01:55:20.555Z,98378.38
2023-04-15T01:57:49.939Z,98375.03
2023-04-15T02:00:19.641Z,98378.16
2023-04-15T02:02:48.975Z,98377.16
2023-04-15T02:05:19.003Z,98374.25
2023-04-15T02:07:50.528Z,98376.16
2023-04-15T02:10:20.373Z,98378.72
2023-04-15T02:12:49.495Z,98383.00
2023-04-15T02:15:18.671Z,98385.53
2023-04-15T02:17:52.221Z,98391.63
2023-04-15T02:20:22.608Z,98384.50
2023-04-15T02:22:52.787Z,98397.69
2023-04-15T02:25:22.023Z,98391.50
2023-04-15T02:27:51.242Z,98395.34
2023-04-15T02:30:20.995Z,98396.22
2023-04-15T02:32:51.047Z,98408.09
2023-04-15T02:35:21.178Z,98408.69
2023-04-15T02:37:50.664Z,98421.22
2023-04-15T02:40:20.958Z,98422.47
2023-04-15T02:42:50.162Z,98423.13
2023-04-15T02:45:24.919Z,98418.25
2023-04-15T02:47:54.304Z,98421.06
2023-04-15T02:50:24.896Z,98435.16
2023-04-15T02:52:54.252Z,98426.78
2023-04-15T02:55:23.679Z,98433.09
2023-04-15T02:57:53.207Z,98440.88
2023-04-15T03:00:22.685Z,98444.56
2023-04-15T03:02:57.555Z,98440.22
2023-04-15T03:05:27.137Z,98448.09
2023-04-15T03:07:57.053Z,98439.53
2023-04-15T03:10:26.901Z,98448.50
2023-04-15T03:12:56.731Z,98448.19
2023-04-15T03:15:26.704Z,98446.91
2023-04-15T03:17:56.967Z,98452.59
2023-04-15T03:20:26.545Z,98459.09
2023-04-15T03:22:55.907Z,98452.56
2023-04-15T03:25:28.297Z,98458.22
2023-04-15T03:27:57.901Z,98463.97
2023-04-15T03:30:28.034Z,98462.97
2023-04-15T03:32:57.748Z,98470.88
2023-04-15T03:35:27.852Z,98476.97
2023-04-15T03:37:57.363Z,98469.38
2023-04-15T03:40:26.545Z,98472.78
2023-04-15T03:42:56.264Z,98475.22
2023-04-15T03:45:25.485Z,98477.97
2023-04-15T03:47:54.957Z,98482.81
2023-04-15T03:50:24.496Z,98482.34
2023-04-15T03:52:54.104Z,98486.41
2023-04-15T03:55:23.151Z,98493.84
2023-04-15T03:57:52.583Z,98487.47
2023-04-15T04:00:21.891Z,98481.09
2023-04-15T04:02:51.791Z,98494.59
2023-04-15T04:05:21.283Z,98486.41
2023-04-15T04:07:50.514Z,98488.72
2023-04-15T04:10:19.922Z,98488.38
2023-04-15T04:12:49.556Z,98492.25
2023-04-15T04:15:18.848Z,98502.00
2023-04-15T04:17:48.147Z,98497.84
2023-04-15T04:20:18.070Z,98505.22
2023-04-15T04:22:47.700Z,98501.66
2023-04-15T04:25:17.480Z,98512.06
2023-04-15T04:27:46.844Z,98501.44
2023-04-15T04:30:16.120Z,98508.78
2023-04-15T04:32:45.726Z,98505.78
2023-04-15T04:35:15.124Z,98516.34
2023-04-15T04:37:44.285Z,98515.22
2023-04-15T04:40:14.573Z,98518.75
2023-04-15T04:42:43.979Z,98525.50
2023-04-15T04:45:13.201Z,98513.63
2023-04-15T04:47:42.766Z,98512.22
2023-04-15T04:50:12.824Z,98508.50
2023-04-15T04:52:42.217Z,98511.16
2023-04-15T04:55:11.781Z,98515.16
2023-04-15T04:57:41.130Z,98513.13
2023-04-15T05:00:11.012Z,98517.09
2023-04-15T05:02:41.091Z,98505.97
2023-04-15T05:05:11.744Z,98511.00
2023-04-15T05:07:41.225Z,98509.03
2023-04-15T05:10:10.935Z,98506.66
2023-04-15T05:12:40.441Z,98505.03
2023-04-15T05:15:10.384Z,98514.53
2023-04-15T05:17:39.742Z,98508.00
2023-04-15T05:20:09.830Z,98505.47
2023-04-15T05:22:39.108Z,98503.72
2023-04-15T05:25:08.920Z,98507.78
2023-04-15T05:27:38.398Z,98508.09
2023-04-15T05:30:08.352Z,98501.03
2023-04-15T05:32:38.136Z,98499.44
2023-04-15T05:35:07.797Z,98498.69
2023-04-15T05:37:37.222Z,98505.50
2023-04-15T05:40:07.032Z,98502.19
2023-04-15T05:42:37.458Z,98498.50
2023-04-15T05:45:10.334Z,98489.75
2023-04-15T05:47:39.735Z,98496.03
2023-04-15T05:50:09.404Z,98497.66
2023-04-15T05:52:38.646Z,98498.91
2023-04-15T05:55:08.218Z,98496.88
2023-04-15T05:57:39.159Z,98495.84
2023-04-15T06:00:08.972Z,98490.41
2023-04-15T06:02:38.920Z,98493.34
2023-04-15T06:05:13.043Z,98496.31
2023-04-15T06:07:42.909Z,98489.84
2023-04-15T06:10:12.482Z,98485.75
2023-04-15T06:12:41.692Z,98483.66
2023-04-15T06:15:12.357Z,98480.84
2023-04-15T06:17:41.846Z,98480.19
2023-04-15T06:20:11.497Z,98476.97
2023-04-15T06:22:41.359Z,98472.25
2023-04-15T06:25:10.896Z,98466.94
2023-04-15T06:27:40.242Z,98467.22
2023-04-15T06:30:10.365Z,98464.09
2023-04-15T06:32:40.177Z,98457.53
2023-04-15T06:35:09.735Z,98461.81
2023-04-15T06:37:38.917Z,98454.69
2023-04-15T06:40:09.736Z,98458.06
2023-04-15T06:42:39.422Z,98445.97
2023-04-15T06:45:09.985Z,98445.75
2023-04-15T06:47:39.551Z,98439.06
2023-04-15T06:50:10.563Z,98446.28
2023-04-15T06:52:40.103Z,98439.91
2023-04-15T06:55:10.015Z,98435.09
2023-04-15T06:57:39.405Z,98429.88
2023-04-15T07:00:09.509Z,98429.81
2023-04-15T07:02:39.333Z,98428.94
2023-04-15T07:05:09.589Z,98419.22
2023-04-15T07:07:39.621Z,98416.59
2023-04-15T07:10:09.642Z,98414.41
2023-04-15T07:12:39.184Z,98414.94
2023-04-15T07:15:08.987Z,98407.66
2023-04-15T07:17:38.412Z,98409.84
2023-04-15T07:20:08.828Z,98408.41
2023-04-15T07:22:38.104Z,98404.03
2023-04-15T07:25:10.775Z,98401.56
2023-04-15T07:27:40.113Z,98396.72
2023-04-15T07:30:10.524Z,98400.44
2023-04-15T07:32:40.711Z,98398.47
2023-04-15T07:35:10.913Z,98384.66
2023-04-15T07:37:40.286Z,98393.84
2023-04-15T07:40:10.116Z,98388.41
2023-04-15T07:42:41.186Z,98377.03
2023-04-15T07:45:11.105Z,98370.41
2023-04-15T07:47:42.058Z,98377.91
2023-04-15T07:50:12.573Z,98373.72
2023-04-15T07:52:42.523Z,98372.63
2023-04-15T07:55:12.517Z,98366.50
2023-04-15T07:57:42.236Z,98363.81
2023-04-15T08:00:12.498Z,98354.25
2023-04-15T08:02:43.954Z,98353.66
2023-04-15T08:05:15.063Z,98354.09
2023-04-15T08:07:44.787Z,98344.81
2023-04-15T08:10:14.917Z,98340.72
2023-04-15T08:12:45.068Z,98340.53
2023-04-15T08:15:15.251Z,98330.16
2023-04-15T08:17:45.678Z,98327.72
2023-04-15T08:20:15.578Z,98320.63
2023-04-15T08:22:46.049Z,98325.69
2023-04-15T08:25:15.779Z,98311.72
2023-04-15T08:27:45.681Z,98305.41
2023-04-15T08:30:15.537Z,98314.41
2023-04-15T08:32:50.622Z,98304.25
2023-04-15T08:35:20.207Z,98294.28
2023-04-15T08:37:49.575Z,98297.50
2023-04-15T08:40:19.292Z,98291.69
2023-04-15T08:42:54.032Z,98286.91
2023-04-15T08:45:24.720Z,98284.38
2023-04-15T08:47:58.762Z,98271.34
2023-04-15T08:50:30.774Z,98274.91
2023-04-15T08:53:03.063Z,98277.34
2023-04-15T08:55:37.886Z,98266.19
2023-04-15T08:58:08.496Z,98259.78
2023-04-15T09:00:37.991Z,98258.59
2023-04-15T09:03:10.987Z,98249.31
2023-04-15T09:05:40.276Z,98249.09
2023-04-15T09:08:09.554Z,98240.69
2023-04-15T09:10:39.574Z,98239.94
2023-04-15T09:13:10.675Z,98229.91
2023-04-15T09:15:43.139Z,98232.38
2023-04-15T09:18:14.999Z,98223.44
2023-04-15T09:20:45.114Z,98222.13
2023-04-15T09:23:16.861Z,98211.94
2023-04-15T09:25:47.264Z,98210.47
2023-04-15T09:28:27.765Z,98205.66
2023-04-15T09:31:04.516Z,98198.06
2023-04-15T09:33:34.107Z,98199.88
2023-04-15T09:36:06.706Z,98192.31
2023-04-15T09:38:36.130Z,98185.09
2023-04-15T09:41:19.685Z,98187.25
2023-04-15T09:43:49.231Z,98183.25
2023-04-15T09:46:18.763Z,98182.84
2023-04-15T09:48:48.103Z,98169.00
2023-04-15T09:51:17.362Z,98160.22
2023-04-15T09:53:46.637Z,98169.63
2023-04-15T09:56:16.425Z,98165.19
2023-04-15T09:58:47.855Z,98147.19
2023-04-15T10:01:17.455Z,98156.22
2023-04-15T10:03:48.361Z,98138.97
2023-04-15T10:06:18.289Z,98141.78
2023-04-15T10:08:49.187Z,98128.56
2023-04-15T10:11:21.228Z,98132.34
2023-04-15T10:13:52.540Z,98135.16
2023-04-15T10:16:24.066Z,98132.31
2023-04-15T10:18:57.671Z,98130.03
2023-04-15T10:21:26.972Z,98128.22
2023-04-15T10:23:56.727Z,98121.88
2023-04-15T10:26:27.440Z,98119.91
2023-04-15T10:28:59.545Z,98112.56
2023-04-15T10:31:31.139Z,98117.78
2023-04-15T10:34:06.429Z,98114.09
2023-04-15T10:36:36.292Z,98115.31
2023-04-15T10:39:41.670Z,98115.97
2023-04-15T10:42:13.896Z,98110.91
2023-04-15T10:44:58.374Z,98109.63
2023-04-15T10:47:29.621Z,98107.59
2023-04-15T10:50:01.590Z,98112.78
2023-04-15T10:52:31.478Z,98100.41
2023-04-15T10:55:25.629Z,98091.31
2023-04-15T10:57:57.081Z,98090.38
2023-04-15T11:00:34.035Z,98091.25
2023-04-15T11:03:10.961Z,98099.47
2023-04-15T11:05:43.574Z,98086.16
2023-04-15T11:08:14.672Z,98093.31
2023-04-15T11:10:44.095Z,98093.53
2023-04-15T11:13:13.447Z,98098.06
2023-04-15T11:15:48.392Z,98081.28
2023-04-15T11:18:18.098Z,98084.75
2023-04-15T11:20:49.502Z,98085.53
2023-04-15T11:23:29.860Z,98089.34
2023-04-15T11:26:01.166Z,98087.19
2023-04-15T11:28:32.263Z,98094.06
2023-04-15T11:31:08.822Z,98082.75
2023-04-15T11:33:38.520Z,98085.25
2023-04-15T11:36:07.877Z,98078.44
2023-04-15T11:38:39.089Z,98084.09
2023-04-15T11:41:08.809Z,98081.72
2023-04-15T11:43:38.138Z,98083.84
2023-04-15T11:46:07.662Z,98074.56
2023-04-15T11:48:38.135Z,98079.69
2023-04-15T11:51:09.341Z,98082.75
2023-04-15T11:53:42.683Z,98077.09
2023-04-15T11:56:12.789Z,98073.91
2023-04-15T11:58:42.205Z,98076.41
2023-04-15T12:01:12.148Z,98082.56
2023-04-15T12:03:46.836Z,98080.13
2023-04-15T12:06:24.637Z,98073.38
2023-04-15T12:08:57.967Z,98075.25
2023-04-15T12:11:33.485Z,98078.16
2023-04-15T12:14:09.243Z,98069.53
2023-04-15T12:16:49.472Z,98070.47
2023-04-15T12:19:36.237Z,98063.63
2023-04-15T12:22:11.241Z,98064.75
2023-04-15T12:24:41.853Z,98066.16
2023-04-15T12:27:13.203Z,98055.19
2023-04-15T12:29:46.698Z,98065.47
2023-04-15T12:32:17.850Z,98064.69
2023-04-15T12:34:53.290Z,98066.25
2023-04-15T12:37:23.036Z,98061.22
2023-04-15T12:39:55.105Z,98058.94
2023-04-15T12:42:24.737Z,98061.53
2023-04-15T12:44:53.923Z,98065.78
2023-04-15T12:47:23.209Z,98069.22
2023-04-15T12:49:52.668Z,98067.50
2023-04-15T12:52:21.969Z,98072.78
2023-04-15T12:54:51.410Z,98069.47
2023-04-15T12:57:20.830Z,98075.50
2023-04-15T12:59:50.262Z,98077.09
2023-04-15T13:02:19.787Z,98075.06
2023-04-15T13:04:49.806Z,98071.97
2023-04-15T13:07:19.186Z,98073.00
2023-04-15T13:09:48.700Z,98081.44
2023-04-15T13:12:18.402Z,98074.72
2023-04-15T13:14:47.942Z,98078.31
2023-04-15T13:17:20.076Z,98080.47
2023-04-15T13:19:49.343Z,98079.06
2023-04-15T13:22:19.316Z,98081.91
2023-04-15T13:24:48.873Z,98088.56
2023-04-15T13:27:18.409Z,98092.72
2023-04-15T13:29:47.934Z,98098.81
2023-04-15T13:32:17.955Z,98095.66
2023-04-15T13:34:47.301Z,98103.16
2023-04-15T13:37:16.621Z,98105.69
2023-04-15T13:39:46.097Z,98099.69
2023-04-15T13:42:15.635Z,98101.06
2023-04-15T13:44:45.400Z,98109.28
2023-04-15T13:47:16.074Z,98115.09
2023-04-15T13:49:45.678Z,98117.22
2023-04-15T13:52:15.605Z,98116.22
2023-04-15T13:54:47.093Z,98124.53
2023-04-15T13:57:17.634Z,98126.97
2023-04-15T13:59:47.004Z,98128.06
2023-04-15T14:02:17.119Z,98134.50
2023-04-15T14:05:17.918Z,98138.84
2023-04-15T14:07:48.045Z,98140.63
2023-04-15T14:10:17.457Z,98144.47
2023-04-15T14:12:46.947Z,98144.81
2023-04-15T14:15:16.346Z,98153.31
2023-04-15T14:17:46.953Z,98157.50
2023-04-15T14:20:17.379Z,98166.34
2023-04-15T14:22:47.310Z,98171.47
2023-04-15T14:25:26.942Z,98173.25
2023-04-15T14:28:04.433Z,98170.72
2023-04-15T14:30:34.087Z,98180.03
2023-04-15T14:33:04.081Z,98180.66
2023-04-15T14:35:34.235Z,98187.88
2023-04-15T14:38:03.976Z,98188.22
2023-04-15T14:40:35.411Z,98190.47
2023-04-15T14:43:04.972Z,98185.97
2023-04-15T14:45:38.736Z,98197.22
2023-04-15T14:48:13.656Z,98199.28
2023-04-15T14:50:43.749Z,98194.44
2023-04-15T14:53:28.297Z,98203.44
2023-04-15T14:55:57.759Z,98205.03
2023-04-15T14:58:27.092Z,98203.28
2023-04-15T15:00:57.478Z,98203.94
2023-04-15T15:03:27.145Z,98208.56
2023-04-15T15:05:58.678Z,98209.22
2023-04-15T15:08:28.540Z,98214.84
2023-04-15T15:10:57.627Z,98207.63
2023-04-15T15:13:27.109Z,98218.38
2023-04-15T15:15:56.806Z,98220.59
2023-04-15T15:18:29.104Z,98223.16
2023-04-15T15:20:58.626Z,98220.28
2023-04-15T15:23:28.281Z,98219.13
2023-04-15T15:25:59.665Z,98218.97
2023-04-15T15:28:29.365Z,98223.31
2023-04-15T15:30:58.747Z,98221.09
2023-04-15T15:33:30.024Z,98227.31
2023-04-15T15:36:00.626Z,98220.75
2023-04-15T15:38:30.335Z,98230.69
2023-04-15T15:40:59.496Z,98239.97
2023-04-15T15:43:28.885Z,98239.19
2023-04-15T15:45:58.392Z,98243.50
2023-04-15T15:48:28.441Z,98236.63
2023-04-15T15:50:57.956Z,98239.66
2023-04-15T15:53:27.205Z,98243.03
2023-04-15T15:55:56.470Z,98239.34
2023-04-15T15:58:25.790Z,98245.75
2023-04-15T16:04:12.136Z,98241.22
2023-04-15T16:06:41.831Z,98249.84
2023-04-15T16:09:11.401Z,98243.91
2023-04-15T16:11:41.005Z,98250.78
2023-04-15T16:14:11.649Z,98245.84
2023-04-15T16:16:41.939Z,98247.78
2023-04-15T16:19:11.566Z,98250.53
2023-04-15T16:21:41.878Z,98248.94
2023-04-15T16:24:12.164Z,98245.84
2023-04-15T16:26:42.783Z,98254.81
2023-04-15T16:29:12.366Z,98267.25
2023-04-15T16:31:42.867Z,98259.72
2023-04-15T16:34:13.581Z,98262.44
2023-04-15T16:36:43.566Z,98266.44
2023-04-15T16:39:13.100Z,98257.66
2023-04-15T16:41:44.213Z,98264.69
2023-04-15T16:44:13.721Z,98259.06
2023-04-15T16:46:43.036Z,98260.81
2023-04-15T16:49:13.174Z,98268.66
2023-04-15T16:51:42.586Z,98262.22
2023-04-15T16:54:12.245Z,98269.09
2023-04-15T16:56:42.031Z,98264.72
2023-04-15T16:59:12.966Z,98263.25
2023-04-15T17:01:43.075Z,98264.19
2023-04-15T17:04:12.633Z,98264.78
2023-04-15T17:06:42.069Z,98273.56
2023-04-15T17:09:12.455Z,98267.47
2023-04-15T17:11:44.076Z,98268.09
2023-04-15T17:14:14.160Z,98265.81
2023-04-15T17:16:44.250Z,98268.97
2023-04-15T17:19:14.389Z,98260.81
2023-04-15T17:21:43.726Z,98259.66
2023-04-15T17:24:13.423Z,98263.78
2023-04-15T17:26:42.678Z,98260.41
2023-04-15T17:29:13.099Z,98259.44
2023-04-15T17:31:43.654Z,98254.78
2023-04-15T17:34:15.290Z,98262.16
2023-04-15T17:36:45.434Z,98249.97
2023-04-15T17:39:16.297Z,98251.75
2023-04-15T17:41:46.432Z,98246.63
2023-04-15T17:44:16.409Z,98247.53
2023-04-15T17:46:46.230Z,98246.13
2023-04-15T17:49:16.880Z,98253.19
2023-04-15T17:51:47.714Z,98247.75
2023-04-15T17:54:18.125Z,98242.63
2023-04-15T17:56:50.160Z,98241.50
2023-04-15T17:59:20.761Z,98250.00
2023-04-15T18:01:50.364Z,98238.66
2023-04-15T18:04:20.005Z,98243.78
2023-04-15T18:06:49.701Z,98239.44
2023-04-15T18:09:21.273Z,98239.19
2023-04-15T18:11:51.270Z,98244.16
2023-04-15T18:14:33.656Z,98243.22
2023-04-15T18:17:05.219Z,98242.88
2023-04-15T18:19:35.460Z,98245.31
2023-04-15T18:22:05.629Z,98240.69
2023-04-15T18:24:35.556Z,98241.47
2023-04-15T18:27:05.388Z,98252.34
2023-04-15T18:29:37.241Z,98260.34
2023-04-15T18:32:07.505Z,98254.09
2023-04-15T18:34:36.986Z,98254.28
2023-04-15T18:37:06.876Z,98254.56
2023-04-15T18:39:36.869Z,98244.81
2023-04-15T18:42:06.424Z,98252.34
2023-04-15T18:45:10.441Z,98249.50
2023-04-15T18:47:40.554Z,98247.09
2023-04-15T18:50:10.254Z,98247.41
2023-04-15T18:53:41.676Z,98247.91
2023-04-15T18:56:11.594Z,98249.13
2023-04-15T18:59:27.550Z,98247.84
2023-04-15T19:01:31.227Z,98243.53
2023-04-15T19:04:01.536Z,98247.34
2023-04-15T19:06:31.871Z,98249.59
2023-04-15T19:09:03.834Z,98243.66
2023-04-15T19:11:33.181Z,98238.03
2023-04-15T19:14:02.553Z,98239.78
2023-04-15T19:16:32.179Z,98234.16
2023-04-15T19:19:01.917Z,98236.06
2023-04-15T19:21:33.165Z,98225.19
2023-04-15T19:24:02.690Z,98227.41
2023-04-15T19:26:32.763Z,98228.84
2023-04-15T19:29:02.376Z,98223.88
2023-04-15T19:31:32.084Z,98225.16
2023-04-15T19:34:01.531Z,98227.94
2023-04-15T19:36:32.518Z,98225.25
2023-04-15T19:39:03.240Z,98226.16
2023-04-15T19:41:32.755Z,98220.03
2023-04-15T19:44:02.232Z,98225.00
2023-04-15T19:46:31.948Z,98225.28
2023-04-15T19:49:02.181Z,98222.06
2023-04-15T19:51:32.949Z,98219.69
2023-04-15T19:54:02.472Z,98229.22
2023-04-15T19:56:32.912Z,98215.25
2023-04-15T19:59:04.093Z,98217.16
2023-04-15T20:01:33.611Z,98215.06
2023-04-15T20:04:05.195Z,98216.47
2023-04-15T20:06:34.594Z,98222.00
2023-04-15T20:09:03.970Z,98215.47
2023-04-15T20:12:45.692Z,98217.81
2023-04-15T20:14:22.683Z,98216.50
2023-04-15T20:16:52.665Z,98205.66
2023-04-15T20:19:21.969Z,98206.09
2023-04-15T20:21:52.530Z,98205.91
2023-04-15T20:24:22.948Z,98211.13
2023-04-15T20:26:52.288Z,98215.56
2023-04-15T20:29:21.474Z,98208.84
2023-04-15T20:31:50.899Z,98202.44
2023-04-15T20:34:20.180Z,98202.22
2023-04-15T20:36:49.381Z,98209.34
2023-04-15T20:39:19.235Z,98204.53
2023-04-15T20:41:50.601Z,98205.94
2023-04-15T20:44:20.146Z,98207.34
2023-04-15T20:46:49.522Z,98202.25
2023-04-15T20:49:18.808Z,98203.16
2023-04-15T20:51:48.237Z,98189.59
2023-04-15T20:54:17.646Z,98196.75
2023-04-15T20:56:47.264Z,98188.38
2023-04-15T20:59:16.424Z,98187.38
2023-04-15T21:01:47.079Z,98184.47
2023-04-15T21:04:16.794Z,98175.84
2023-04-15T21:06:46.077Z,98175.63
2023-04-15T21:09:15.876Z,98178.16
2023-04-15T21:14:21.176Z,98179.38
2023-04-15T21:16:50.736Z,98183.50
2023-04-15T21:19:19.874Z,98184.31
2023-04-15T21:21:50.391Z,98169.13
2023-04-15T21:24:19.506Z,98177.38
2023-04-15T21:26:48.642Z,98174.47
2023-04-15T21:29:18.030Z,98173.97
2023-04-15T21:31:47.884Z,98180.50
2023-04-15T21:34:19.028Z,98178.38
2023-04-15T21:36:48.286Z,98182.47
2023-04-15T21:39:18.245Z,98177.06
2023-04-15T21:41:48.164Z,98178.75
2023-04-15T21:44:17.477Z,98169.34
2023-04-15T21:46:46.896Z,98169.13
2023-04-15T21:49:16.354Z,98167.22
2023-04-15T21:51:46.694Z,98165.22
2023-04-15T21:54:16.273Z,98167.91
2023-04-15T21:56:45.383Z,98170.34
2023-04-15T21:59:14.960Z,98167.91
2023-04-15T22:01:44.278Z,98168.53
2023-04-15T22:04:13.721Z,98171.63
2023-04-15T22:06:43.065Z,98181.47
2023-04-15T22:09:14.169Z,98172.22
2023-04-15T22:11:43.934Z,98174.44
2023-04-15T22:14:13.405Z,98170.13
2023-04-15T22:16:43.000Z,98165.28
2023-04-15T22:19:12.475Z,98162.91
2023-04-15T22:21:42.152Z,98158.78
2023-04-15T22:24:36.988Z,98159.06
2023-04-15T22:27:01.871Z,98160.19
2023-04-15T22:29:32.068Z,98158.56
2023-04-15T22:32:01.510Z,98153.97
2023-04-15T22:34:30.865Z,98150.44
2023-04-15T22:37:00.236Z,98156.16
2023-04-15T22:39:30.045Z,98160.75
2023-04-15T22:41:59.225Z,98157.84
2023-04-15T22:44:28.563Z,98153.84
2023-04-15T22:46:57.899Z,98152.25
2023-04-15T22:49:28.033Z,98155.25
2023-04-15T22:51:57.035Z,98145.50
2023-04-15T22:54:26.293Z,98143.09
2023-04-15T22:56:55.560Z,98140.69
2023-04-15T22:59:25.381Z,98144.81
2023-04-15T23:01:54.924Z,98146.72
2023-04-15T23:04:26.393Z,98147.81
2023-04-15T23:06:57.194Z,98149.72
2023-04-15T23:09:26.556Z,98147.91
2023-04-15T23:11:57.992Z,98154.41
2023-04-15T23:14:28.968Z,98159.06
2023-04-15T23:17:00.047Z,98165.81
2023-04-15T23:19:29.451Z,98171.53
2023-04-15T23:21:58.534Z,98192.66
2023-04-15T23:24:28.205Z,98223.59
2023-04-15T23:26:58.227Z,98214.47
2023-04-15T23:29:28.056Z,98200.41
2023-04-15T23:31:58.935Z,98189.06
2023-04-15T23:34:29.334Z,98181.75
2023-04-15T23:36:59.576Z,98164.41
2023-04-15T23:39:29.097Z,98162.50
2023-04-15T23:41:58.232Z,98185.56
2023-04-15T23:44:27.420Z,98182.94
2023-04-15T23:46:57.115Z,98191.66
2023-04-15T23:49:26.677Z,98184.94
2023-04-15T23:51:55.657Z,98190.03
2023-04-15T23:54:25.207Z,98180.81
2023-04-15T23:57:06.052Z,98183.53
2023-04-15T23:59:36.066Z,98190.34
